createdAt,value
2023-04-24T00:00:27.145Z,41.04
2023-04-24T00:02:59.484Z,41.27
2023-04-24T00:05:31.818Z,41.19
2023-04-24T00:08:03.809Z,41.29
2023-04-24T00:10:35.936Z,41.30
2023-04-24T00:13:08.626Z,41.34
2023-04-24T00:15:40.832Z,41.17
2023-04-24T00:18:12.882Z,40.61
2023-04-24T00:20:45.376Z,40.76
2023-04-24T00:23:17.640Z,40.88
2023-04-24T00:25:49.736Z,39.65
2023-04-24T00:28:22.080Z,40.58
2023-04-24T00:30:54.147Z,39.41
2023-04-24T00:33:26.419Z,38.69
2023-04-24T00:35:58.860Z,39.02
2023-04-24T00:38:31.220Z,38.80
2023-04-24T00:41:03.376Z,38.41
2023-04-24T00:43:38.305Z,38.44
2023-04-24T00:46:10.699Z,38.42
2023-04-24T00:48:43.157Z,37.58
2023-04-24T00:51:15.935Z,37.46
2023-04-24T00:53:48.493Z,37.56
2023-04-24T00:56:21.708Z,37.20
2023-04-24T00:58:54.149Z,37.05
2023-04-24T01:01:27.421Z,37.17
2023-04-24T01:04:01.197Z,37.57
2023-04-24T01:06:34.087Z,37.84
2023-04-24T01:09:06.844Z,37.30
2023-04-24T01:11:39.724Z,37.66
2023-04-24T01:14:12.439Z,37.74
2023-04-24T01:16:44.796Z,37.68
2023-04-24T01:19:19.519Z,37.30
2023-04-24T01:21:53.898Z,37.02
2023-04-24T01:24:26.399Z,36.76
2023-04-24T01:26:58.454Z,36.54
2023-04-24T01:29:30.699Z,36.86
2023-04-24T01:32:02.864Z,37.37
2023-04-24T01:34:35.707Z,36.60
2023-04-24T01:37:08.079Z,37.15
2023-04-24T01:39:40.574Z,37.37
2023-04-24T01:42:14.122Z,37.29
2023-04-24T01:44:46.656Z,37.29
2023-04-24T01:47:18.914Z,37.84
2023-04-24T01:49:51.987Z,37.65
2023-04-24T01:52:24.131Z,37.59
2023-04-24T01:54:57.002Z,38.01
2023-04-24T01:57:29.408Z,38.07
2023-04-24T02:00:01.852Z,38.25
2023-04-24T02:02:36.108Z,38.09
2023-04-24T02:05:12.172Z,38.18
2023-04-24T02:07:44.270Z,38.25
2023-04-24T02:10:16.847Z,38.61
2023-04-24T02:12:50.011Z,38.60
2023-04-24T02:15:22.469Z,38.98
2023-04-24T02:17:55.307Z,38.69
2023-04-24T02:20:27.598Z,38.79
2023-04-24T02:22:59.744Z,39.35
2023-04-24T02:25:31.980Z,39.27
2023-04-24T02:28:04.190Z,39.21
2023-04-24T02:30:38.270Z,38.52
2023-04-24T02:33:10.563Z,39.36
2023-04-24T02:35:42.610Z,39.70
2023-04-24T02:38:14.917Z,39.32
2023-04-24T02:40:48.419Z,39.77
2023-04-24T02:43:21.349Z,39.24
2023-04-24T02:45:53.568Z,39.64
2023-04-24T02:48:26.421Z,39.70
2023-04-24T02:50:58.795Z,39.15
2023-04-24T02:53:32.096Z,39.15
2023-04-24T02:56:04.346Z,38.65
2023-04-24T02:58:36.694Z,38.74
2023-04-24T03:01:10.960Z,38.27
2023-04-24T03:03:43.363Z,38.27
2023-04-24T03:06:15.711Z,38.10
2023-04-24T03:08:47.911Z,37.98
2023-04-24T03:11:20.595Z,37.70
2023-04-24T03:13:52.775Z,37.73
2023-04-24T03:16:25.184Z,37.38
2023-04-24T03:18:58.431Z,37.31
2023-04-24T03:21:32.393Z,37.33
2023-04-24T03:24:06.243Z,36.84
2023-04-24T03:26:38.329Z,36.56
2023-04-24T03:29:12.079Z,37.02
2023-04-24T03:31:45.077Z,36.36
2023-04-24T03:34:17.254Z,36.07
2023-04-24T03:36:49.803Z,35.91
2023-04-24T03:39:22.136Z,35.79
2023-04-24T03:41:56.469Z,35.75
2023-04-24T03:44:29.924Z,35.61
2023-04-24T03:47:01.637Z,35.36
2023-04-24T03:49:34.546Z,35.15
2023-04-24T03:52:07.064Z,35.18
2023-04-24T03:54:39.512Z,35.08
2023-04-24T03:57:11.989Z,35.08
2023-04-24T03:59:45.931Z,34.92
2023-04-24T04:02:20.080Z,34.24
2023-04-24T04:04:53.090Z,34.66
2023-04-24T04:07:25.629Z,33.97
2023-04-24T04:09:58.080Z,34.09
2023-04-24T04:12:31.547Z,33.45
2023-04-24T04:15:05.396Z,33.24
2023-04-24T04:17:39.411Z,32.99
2023-04-24T04:20:13.211Z,32.67
2023-04-24T04:22:46.572Z,32.58
2023-04-24T04:25:21.635Z,32.78
2023-04-24T04:27:55.020Z,32.17
2023-04-24T04:30:27.888Z,32.54
2023-04-24T04:33:03.904Z,32.12
2023-04-24T04:35:37.693Z,32.11
2023-04-24T04:38:12.158Z,31.89
2023-04-24T04:40:49.377Z,31.88
2023-04-24T04:43:22.762Z,31.91
2023-04-24T04:45:57.212Z,31.74
2023-04-24T04:48:46.943Z,30.89
2023-04-24T04:51:19.719Z,30.79
2023-04-24T04:53:53.129Z,30.79
2023-04-24T04:56:25.854Z,30.54
2023-04-24T04:58:58.178Z,30.29
2023-04-24T05:01:32.123Z,30.29
2023-04-24T05:04:04.295Z,30.24
2023-04-24T05:06:37.018Z,29.38
2023-04-24T05:09:10.895Z,29.71
2023-04-24T05:11:47.722Z,29.63
2023-04-24T05:14:20.628Z,29.63
2023-04-24T05:16:54.470Z,29.45
2023-04-24T05:19:27.095Z,29.30
2023-04-24T05:21:59.749Z,29.00
2023-04-24T05:24:32.136Z,28.97
2023-04-24T05:27:06.409Z,28.98
2023-04-24T05:29:40.196Z,28.54
2023-04-24T05:32:13.343Z,28.54
2023-04-24T05:34:45.592Z,28.84
2023-04-24T05:37:19.007Z,28.62
2023-04-24T05:39:51.941Z,27.65
2023-04-24T05:42:24.671Z,28.31
2023-04-24T05:44:57.991Z,27.83
2023-04-24T05:47:33.296Z,28.01
2023-04-24T05:50:05.940Z,28.21
2023-04-24T05:52:38.385Z,28.06
2023-04-24T05:55:12.222Z,27.61
2023-04-24T05:57:44.777Z,26.95
2023-04-24T06:00:19.256Z,26.93
2023-04-24T06:02:54.458Z,26.58
2023-04-24T06:05:27.809Z,26.48
2023-04-24T06:08:00.594Z,26.07
2023-04-24T06:10:34.317Z,25.34
2023-04-24T06:13:07.955Z,24.48
2023-04-24T06:15:42.112Z,23.32
2023-04-24T06:18:19.281Z,22.76
2023-04-24T06:20:53.395Z,21.95
2023-04-24T06:23:26.301Z,21.33
2023-04-24T06:25:58.932Z,20.37
2023-04-24T06:28:31.180Z,20.05
2023-04-24T06:31:03.680Z,19.85
2023-04-24T06:33:36.215Z,19.91
2023-04-24T06:36:08.677Z,19.39
2023-04-24T06:38:41.217Z,18.64
2023-04-24T06:41:14.288Z,18.07
2023-04-24T06:43:46.619Z,17.89
2023-04-24T06:46:19.009Z,17.40
2023-04-24T06:48:51.900Z,17.45
2023-04-24T06:51:28.986Z,17.29
2023-04-24T06:54:02.540Z,17.42
2023-04-24T06:56:35.560Z,17.45
2023-04-24T06:59:07.858Z,17.31
2023-04-24T07:01:40.291Z,17.43
2023-04-24T07:04:13.632Z,17.83
2023-04-24T07:06:50.360Z,17.78
2023-04-24T07:09:23.085Z,18.39
2023-04-24T07:11:55.693Z,18.73
2023-04-24T07:14:28.053Z,19.29
2023-04-24T07:17:00.512Z,19.89
2023-04-24T07:19:33.666Z,19.88
2023-04-24T07:22:06.480Z,20.26
2023-04-24T07:24:39.291Z,20.87
2023-04-24T07:27:11.555Z,20.55
2023-04-24T07:29:44.879Z,20.98
2023-04-24T07:32:17.616Z,21.26
2023-04-24T07:34:50.004Z,21.37
2023-04-24T07:37:23.062Z,21.08
2023-04-24T07:39:55.532Z,21.13
2023-04-24T07:42:27.879Z,20.73
2023-04-24T07:45:00.881Z,21.44
2023-04-24T07:47:35.503Z,20.77
2023-04-24T07:50:08.776Z,20.80
2023-04-24T07:52:41.084Z,20.65
2023-04-24T07:55:13.507Z,20.88
2023-04-24T07:57:46.235Z,20.18
2023-04-24T08:00:18.630Z,19.83
2023-04-24T08:02:51.378Z,19.80
2023-04-24T08:05:26.052Z,19.81
2023-04-24T08:07:58.749Z,20.06
2023-04-24T08:10:31.414Z,19.88
2023-04-24T08:13:04.088Z,19.78
2023-04-24T08:15:36.612Z,19.70
2023-04-24T08:18:09.114Z,19.59
2023-04-24T08:20:41.651Z,19.41
2023-04-24T08:23:13.950Z,19.46
2023-04-24T08:25:46.614Z,19.70
2023-04-24T08:28:20.871Z,19.75
2023-04-24T08:30:54.640Z,19.74
2023-04-24T08:33:26.996Z,19.81
2023-04-24T08:35:59.222Z,19.86
2023-04-24T08:38:31.808Z,20.00
2023-04-24T08:41:06.267Z,19.87
2023-04-24T08:43:39.064Z,19.63
2023-04-24T08:46:12.263Z,19.62
2023-04-24T08:48:45.403Z,19.58
2023-04-24T08:51:19.084Z,19.51
2023-04-24T08:53:51.625Z,19.81
2023-04-24T08:56:25.558Z,19.81
2023-04-24T08:58:58.673Z,19.98
2023-04-24T09:01:31.369Z,19.94
2023-04-24T09:04:05.797Z,19.80
2023-04-24T09:06:38.261Z,19.37
2023-04-24T09:09:13.029Z,19.36
2023-04-24T09:11:45.609Z,18.90
2023-04-24T09:14:19.654Z,19.24
2023-04-24T09:16:53.370Z,18.90
2023-04-24T09:19:25.910Z,18.53
2023-04-24T09:21:58.701Z,18.26
2023-04-24T09:24:31.127Z,18.49
2023-04-24T09:27:05.038Z,18.37
2023-04-24T09:29:37.585Z,18.69
2023-04-24T09:32:23.803Z,18.69
2023-04-24T09:35:15.753Z,18.14
2023-04-24T09:37:50.366Z,18.69
2023-04-24T09:40:24.572Z,19.30
2023-04-24T09:43:01.464Z,19.88
2023-04-24T09:45:41.969Z,19.82
2023-04-24T09:48:14.627Z,20.46
2023-04-24T09:50:48.793Z,20.12
2023-04-24T09:53:24.126Z,20.12
2023-04-24T09:55:56.927Z,20.05
2023-04-24T09:58:29.259Z,19.66
2023-04-24T10:01:02.236Z,19.78
2023-04-24T10:03:36.141Z,19.54
2023-04-24T10:06:10.449Z,19.32
2023-04-24T10:08:43.632Z,19.53
2023-04-24T10:11:16.733Z,19.40
2023-04-24T10:13:49.682Z,18.73
2023-04-24T10:16:23.578Z,19.30
2023-04-24T10:18:56.358Z,19.35
2023-04-24T10:21:29.664Z,19.65
2023-04-24T10:24:04.201Z,19.76
2023-04-24T10:26:38.388Z,19.84
2023-04-24T10:29:13.631Z,19.80
2023-04-24T10:31:49.274Z,19.74
2023-04-24T10:34:25.444Z,20.13
2023-04-24T10:36:59.392Z,20.16
2023-04-24T10:39:33.846Z,19.54
2023-04-24T10:42:17.062Z,19.57
2023-04-24T10:44:52.464Z,19.52
2023-04-24T10:47:25.181Z,19.95
2023-04-24T10:50:00.398Z,19.94
2023-04-24T10:52:51.384Z,19.85
2023-04-24T10:55:43.502Z,19.91
2023-04-24T10:58:17.792Z,20.42
2023-04-24T11:00:58.397Z,20.17
2023-04-24T11:03:32.482Z,19.89
2023-04-24T11:06:10.376Z,19.54
2023-04-24T11:08:48.897Z,19.31
2023-04-24T11:11:22.829Z,19.66
2023-04-24T11:14:03.541Z,19.37
2023-04-24T11:16:46.673Z,19.40
2023-04-24T11:19:23.564Z,18.94
2023-04-24T11:22:06.827Z,18.85
2023-04-24T11:24:41.763Z,18.86
2023-04-24T11:27:25.466Z,18.67
2023-04-24T11:30:04.425Z,18.51
2023-04-24T11:32:40.980Z,18.16
2023-04-24T11:35:18.550Z,17.56
2023-04-24T11:38:12.496Z,17.37
2023-04-24T11:40:30.277Z,16.92
2023-04-24T11:43:02.972Z,17.34
2023-04-24T11:45:35.781Z,17.39
2023-04-24T11:48:08.050Z,17.54
2023-04-24T11:50:40.433Z,18.02
2023-04-24T11:53:14.496Z,17.38
2023-04-24T11:55:46.918Z,17.41
2023-04-24T11:58:22.353Z,17.71
2023-04-24T12:01:00.579Z,17.32
2023-04-24T12:03:34.052Z,17.65
2023-04-24T12:06:10.093Z,17.02
2023-04-24T12:08:42.328Z,15.97
2023-04-24T12:11:17.489Z,14.63
2023-04-24T12:13:50.145Z,13.22
2023-04-24T12:16:22.728Z,12.08
2023-04-24T12:18:54.940Z,10.70
2023-04-24T12:21:29.003Z,9.54
2023-04-24T12:24:01.351Z,8.79
2023-04-24T12:26:33.856Z,8.28
2023-04-24T12:29:06.092Z,7.91
2023-04-24T12:31:38.321Z,7.18
2023-04-24T12:34:22.117Z,6.64
2023-04-24T12:37:13.637Z,6.45
2023-04-24T12:40:02.372Z,5.95
2023-04-24T12:42:35.026Z,5.89
2023-04-24T12:45:09.111Z,6.63
2023-04-24T12:47:42.344Z,7.58
2023-04-24T12:50:16.837Z,8.84
2023-04-24T12:52:48.661Z,9.84
2023-04-24T12:55:21.650Z,10.45
2023-04-24T12:57:55.835Z,11.21
2023-04-24T13:00:27.963Z,11.49
2023-04-24T13:03:00.627Z,10.93
2023-04-24T13:05:33.583Z,9.00
2023-04-24T13:08:05.822Z,8.02
2023-04-24T13:10:38.473Z,7.81
2023-04-24T13:13:12.317Z,7.95
2023-04-24T13:15:44.506Z,7.51
2023-04-24T13:18:17.320Z,6.91
2023-04-24T13:20:49.393Z,6.53
2023-04-24T13:23:22.065Z,6.17
2023-04-24T13:25:56.512Z,5.79
2023-04-24T13:28:28.993Z,5.86
2023-04-24T13:31:01.502Z,5.25
2023-04-24T13:33:34.480Z,5.30
2023-04-24T13:36:06.929Z,5.06
2023-04-24T13:38:39.326Z,5.04
2023-04-24T13:41:11.937Z,5.19
2023-04-24T13:43:44.764Z,5.30
2023-04-24T13:46:17.314Z,5.13
2023-04-24T13:48:50.690Z,5.12
2023-04-24T13:51:23.189Z,5.25
2023-04-24T13:53:58.313Z,5.23
2023-04-24T13:56:30.785Z,5.52
2023-04-24T13:59:03.333Z,5.77
2023-04-24T14:01:35.435Z,5.91
2023-04-24T14:04:08.526Z,5.97
2023-04-24T14:06:41.212Z,5.75
2023-04-24T14:09:14.171Z,5.96
2023-04-24T14:11:46.616Z,6.12
2023-04-24T14:14:19.079Z,5.93
2023-04-24T14:16:52.137Z,5.72
2023-04-24T14:19:24.954Z,5.56
2023-04-24T14:21:57.829Z,5.43
2023-04-24T14:24:30.203Z,5.36
2023-04-24T14:27:02.820Z,5.21
2023-04-24T14:29:35.457Z,4.99
2023-04-24T14:32:08.134Z,4.98
2023-04-24T14:34:40.600Z,5.29
2023-04-24T14:37:13.475Z,5.35
2023-04-24T14:39:49.980Z,5.56
2023-04-24T14:42:19.253Z,5.50
2023-04-24T14:44:51.332Z,5.56
2023-04-24T14:47:23.798Z,5.61
2023-04-24T14:49:56.707Z,5.91
2023-04-24T14:52:29.291Z,6.38
2023-04-24T14:55:01.846Z,6.57
2023-04-24T14:57:34.557Z,7.26
2023-04-24T15:00:10.853Z,8.16
2023-04-24T15:02:44.627Z,9.15
2023-04-24T15:05:17.531Z,10.29
2023-04-24T15:07:49.977Z,11.20
2023-04-24T15:10:24.064Z,12.06
2023-04-24T15:12:56.332Z,12.82
2023-04-24T15:15:28.597Z,13.61
2023-04-24T15:18:01.212Z,14.37
2023-04-24T15:20:36.124Z,14.97
2023-04-24T15:23:10.633Z,15.16
2023-04-24T15:25:42.970Z,15.69
2023-04-24T15:28:16.485Z,15.92
2023-04-24T15:30:49.096Z,16.16
2023-04-24T15:33:21.959Z,16.31
2023-04-24T15:35:54.407Z,16.14
2023-04-24T15:38:27.959Z,16.62
2023-04-24T15:41:02.645Z,16.76
2023-04-24T15:43:35.733Z,17.09
2023-04-24T15:46:08.209Z,17.00
2023-04-24T15:48:42.490Z,17.30
2023-04-24T15:51:15.366Z,17.50
2023-04-24T15:53:48.432Z,17.54
2023-04-24T15:56:21.590Z,17.64
2023-04-24T15:58:53.880Z,17.89
2023-04-24T16:01:26.715Z,18.00
2023-04-24T16:03:59.502Z,18.28
2023-04-24T16:06:33.990Z,18.47
2023-04-24T16:09:06.290Z,18.46
2023-04-24T16:11:39.753Z,18.65
2023-04-24T16:14:12.479Z,18.75
2023-04-24T16:16:45.342Z,18.96
2023-04-24T16:19:18.196Z,19.15
2023-04-24T16:21:52.139Z,19.17
2023-04-24T16:24:27.869Z,19.32
2023-04-24T16:27:00.198Z,19.48
2023-04-24T16:29:32.872Z,19.54
2023-04-24T16:32:05.270Z,19.62
2023-04-24T16:34:38.235Z,19.80
2023-04-24T16:37:12.724Z,19.95
2023-04-24T16:39:45.627Z,19.69
2023-04-24T16:42:18.252Z,19.98
2023-04-24T16:44:50.474Z,20.22
2023-04-24T16:47:22.792Z,20.45
2023-04-24T16:49:55.324Z,20.57
2023-04-24T16:52:27.473Z,20.58
2023-04-24T16:55:00.615Z,20.95
2023-04-24T16:57:33.466Z,20.99
2023-04-24T17:00:06.425Z,20.37
2023-04-24T17:02:37.871Z,21.56
2023-04-24T17:05:11.209Z,21.68
2023-04-24T17:07:44.013Z,22.01
2023-04-24T17:10:17.360Z,22.17
2023-04-24T17:12:49.427Z,22.49
2023-04-24T17:15:21.723Z,22.57
2023-04-24T17:17:54.009Z,22.58
2023-04-24T17:20:29.720Z,22.50
2023-04-24T17:22:59.989Z,22.72
2023-04-24T17:25:31.882Z,21.73
2023-04-24T17:28:05.313Z,23.33
2023-04-24T17:30:37.532Z,23.49
2023-04-24T17:33:09.846Z,23.47
2023-04-24T17:35:42.307Z,23.71
2023-04-24T17:38:14.411Z,23.69
2023-04-24T17:40:47.516Z,24.00
2023-04-24T17:43:22.988Z,24.15
2023-04-24T17:45:56.923Z,24.35
2023-04-24T17:48:32.260Z,24.12
2023-04-24T17:51:05.638Z,24.23
2023-04-24T17:53:38.545Z,24.35
2023-04-24T17:56:10.704Z,24.40
2023-04-24T17:58:43.092Z,24.82
2023-04-24T18:01:15.253Z,24.70
2023-04-24T18:03:47.634Z,24.68
2023-04-24T18:06:19.824Z,24.72
2023-04-24T18:08:51.802Z,24.88
2023-04-24T18:11:24.135Z,24.77
2023-04-24T18:13:56.438Z,25.03
2023-04-24T18:16:28.592Z,25.05
2023-04-24T18:19:00.758Z,25.36
2023-04-24T18:21:32.928Z,25.06
2023-04-24T18:24:05.228Z,25.10
2023-04-24T18:26:37.442Z,25.17
2023-04-24T18:29:10.074Z,25.06
2023-04-24T18:31:42.385Z,25.01
2023-04-24T18:34:16.182Z,25.10
2023-04-24T18:36:48.640Z,24.67
2023-04-24T18:39:23.083Z,24.65
2023-04-24T18:41:55.952Z,24.51
2023-04-24T18:44:28.255Z,24.80
2023-04-24T18:47:00.698Z,24.44
2023-04-24T18:49:33.257Z,24.38
2023-04-24T18:52:05.197Z,24.66
2023-04-24T18:54:38.116Z,24.81
2023-04-24T18:57:10.162Z,24.67
2023-04-24T18:59:42.618Z,25.04
2023-04-24T19:02:15.913Z,25.10
2023-04-24T19:04:48.367Z,24.77
2023-04-24T19:07:20.840Z,24.97
2023-04-24T19:09:52.866Z,24.56
2023-04-24T19:12:25.274Z,25.40
2023-04-24T19:14:58.089Z,24.92
2023-04-24T19:17:39.680Z,25.09
2023-04-24T19:20:12.412Z,24.75
2023-04-24T19:22:44.732Z,25.35
2023-04-24T19:25:17.159Z,25.34
2023-04-24T19:27:50.133Z,25.66
2023-04-24T19:30:22.541Z,25.50
2023-04-24T19:32:54.992Z,25.50
2023-04-24T19:35:27.201Z,25.28
2023-04-24T19:37:59.418Z,24.90
2023-04-24T19:40:31.812Z,25.08
2023-04-24T19:43:04.127Z,25.25
2023-04-24T19:45:36.176Z,25.36
2023-04-24T19:48:08.633Z,25.43
2023-04-24T19:50:42.776Z,25.58
2023-04-24T19:53:15.096Z,25.44
2023-04-24T19:55:47.181Z,25.89
2023-04-24T19:58:19.399Z,25.68
2023-04-24T20:00:51.999Z,25.75
2023-04-24T20:03:32.809Z,25.69
2023-04-24T20:05:57.811Z,25.57
2023-04-24T20:08:30.053Z,25.69
2023-04-24T20:11:02.137Z,25.58
2023-04-24T20:13:34.293Z,25.63
2023-04-24T20:16:10.965Z,25.88
2023-04-24T20:18:41.912Z,25.85
2023-04-24T20:21:14.401Z,25.92
2023-04-24T20:23:46.469Z,25.93
2023-04-24T20:26:18.800Z,26.26
2023-04-24T20:28:51.154Z,26.31
2023-04-24T20:31:23.548Z,26.46
2023-04-24T20:33:55.691Z,26.65
2023-04-24T20:36:28.697Z,26.85
2023-04-24T20:39:01.566Z,26.96
2023-04-24T20:41:35.829Z,26.93
2023-04-24T20:44:08.430Z,27.05
2023-04-24T20:46:41.212Z,27.04
2023-04-24T20:49:13.278Z,26.96
2023-04-24T20:51:45.273Z,27.27
2023-04-24T20:54:17.367Z,27.47
2023-04-24T20:56:49.770Z,27.46
2023-04-24T20:59:21.960Z,27.71
2023-04-24T21:01:54.093Z,27.85
2023-04-24T21:04:26.397Z,27.83
2023-04-24T21:06:58.498Z,27.99
2023-04-24T21:09:30.956Z,28.10
2023-04-24T21:12:03.517Z,28.17
2023-04-24T21:14:35.901Z,28.54
2023-04-24T21:17:08.201Z,28.95
2023-04-24T21:19:40.681Z,28.68
2023-04-24T21:22:12.731Z,28.68
2023-04-24T21:24:44.605Z,28.64
2023-04-24T21:27:16.704Z,28.88
2023-04-24T21:29:49.423Z,29.07
2023-04-24T21:32:22.160Z,29.09
2023-04-24T21:34:54.504Z,29.32
2023-04-24T21:37:27.289Z,29.97
2023-04-24T21:39:59.619Z,30.28
2023-04-24T21:42:33.017Z,30.18
2023-04-24T21:45:06.302Z,30.42
2023-04-24T21:47:38.659Z,31.03
2023-04-24T21:50:11.658Z,30.96
2023-04-24T21:52:43.871Z,31.27
2023-04-24T21:55:15.865Z,31.13
2023-04-24T21:57:48.039Z,31.23
2023-04-24T22:00:20.303Z,30.94
2023-04-24T22:02:52.750Z,30.94
2023-04-24T22:05:25.037Z,31.15
2023-04-24T22:07:59.372Z,31.55
2023-04-24T22:10:31.558Z,31.42
2023-04-24T22:13:03.984Z,31.44
2023-04-24T22:15:36.128Z,31.66
2023-04-24T22:18:08.470Z,31.73
2023-04-24T22:20:40.695Z,31.79
2023-04-24T22:23:13.108Z,31.79
2023-04-24T22:25:45.419Z,32.46
2023-04-24T22:28:17.578Z,32.35
2023-04-24T22:30:50.230Z,32.41
2023-04-24T22:33:22.382Z,32.43
2023-04-24T22:35:54.774Z,32.96
2023-04-24T22:38:27.121Z,32.53
2023-04-24T22:40:59.681Z,32.53
2023-04-24T22:43:32.824Z,32.72
2023-04-24T22:46:05.845Z,32.74
2023-04-24T22:48:38.138Z,32.88
2023-04-24T22:51:10.803Z,32.64
2023-04-24T22:53:43.115Z,32.75
2023-04-24T22:56:15.784Z,32.48
2023-04-24T22:58:48.374Z,32.48
2023-04-24T23:01:20.781Z,33.00
2023-04-24T23:03:53.550Z,33.27
2023-04-24T23:06:27.012Z,33.27
2023-04-24T23:08:59.225Z,33.59
2023-04-24T23:11:31.565Z,33.87
2023-04-24T23:14:03.941Z,34.27
2023-04-24T23:16:40.884Z,34.56
2023-04-24T23:19:12.957Z,35.15
2023-04-24T23:21:45.433Z,35.15
2023-04-24T23:24:17.750Z,35.55
2023-04-24T23:26:49.868Z,35.54
2023-04-24T23:29:23.332Z,36.29
2023-04-24T23:31:55.842Z,36.29
2023-04-24T23:34:27.970Z,36.54
2023-04-24T23:37:00.626Z,37.03
2023-04-24T23:39:33.337Z,37.54
2023-04-24T23:42:05.513Z,37.85
2023-04-24T23:44:37.809Z,37.79
2023-04-24T23:47:09.866Z,38.01
2023-04-24T23:49:41.898Z,38.09
2023-04-24T23:52:14.028Z,38.45
2023-04-24T23:54:46.440Z,38.40
2023-04-24T23:57:19.265Z,38.65
2023-04-24T23:59:51.396Z,38.82
